sensor_id;sensor_type;location;lat;lon;timestamp;P1;durP1;ratioP1;P2;durP2;ratioP2
8327;SDS011;4201;48.754;8.864;2023-07-30T00:00:19;4.43;;;2.77;;
8327;SDS011;4201;48.754;8.864;2023-07-30T00:02:46;5.20;;;2.40;;
8327;SDS011;4201;48.754;8.864;2023-07-30T00:05:12;3.80;;;2.80;;
8327;SDS011;4201;48.754;8.864;2023-07-30T00:07:38;4.43;;;2.10;;
8327;SDS011;4201;48.754;8.864;2023-07-30T00:10:06;5.23;;;2.77;;
8327;SDS011;4201;48.754;8.864;2023-07-30T00:12:33;4.90;;;2.90;;
8327;SDS011;4201;48.754;8.864;2023-07-30T00:14:59;5.20;;;3.10;;
8327;SDS011;4201;48.754;8.864;2023-07-30T00:17:25;6.23;;;3.30;;
8327;SDS011;4201;48.754;8.864;2023-07-30T00:19:51;4.13;;;3.10;;
8327;SDS011;4201;48.754;8.864;2023-07-30T00:22:18;4.00;;;2.27;;
8327;SDS011;4201;48.754;8.864;2023-07-30T00:24:44;4.50;;;3.57;;
8327;SDS011;4201;48.754;8.864;2023-07-30T00:27:11;3.63;;;2.50;;
8327;SDS011;4201;48.754;8.864;2023-07-30T00:29:38;5.63;;;3.03;;
8327;SDS011;4201;48.754;8.864;2023-07-30T00:32:04;4.50;;;2.80;;
8327;SDS011;4201;48.754;8.864;2023-07-30T00:34:31;7.43;;;3.40;;
8327;SDS011;4201;48.754;8.864;2023-07-30T00:36:57;4.40;;;2.43;;
8327;SDS011;4201;48.754;8.864;2023-07-30T00:39:23;6.17;;;2.43;;
8327;SDS011;4201;48.754;8.864;2023-07-30T00:41:49;5.27;;;2.40;;
8327;SDS011;4201;48.754;8.864;2023-07-30T00:44:17;3.70;;;2.20;;
8327;SDS011;4201;48.754;8.864;2023-07-30T00:46:44;5.53;;;3.03;;
8327;SDS011;4201;48.754;8.864;2023-07-30T00:49:10;5.37;;;2.50;;
8327;SDS011;4201;48.754;8.864;2023-07-30T00:51:36;5.10;;;2.70;;
8327;SDS011;4201;48.754;8.864;2023-07-30T00:54:03;4.30;;;2.63;;
8327;SDS011;4201;48.754;8.864;2023-07-30T00:56:29;5.20;;;3.30;;
8327;SDS011;4201;48.754;8.864;2023-07-30T00:58:56;4.27;;;2.70;;
8327;SDS011;4201;48.754;8.864;2023-07-30T01:01:23;5.33;;;2.80;;
8327;SDS011;4201;48.754;8.864;2023-07-30T01:03:50;4.13;;;2.70;;
8327;SDS011;4201;48.754;8.864;2023-07-30T01:06:16;4.67;;;2.37;;
8327;SDS011;4201;48.754;8.864;2023-07-30T01:08:43;3.67;;;2.43;;
8327;SDS011;4201;48.754;8.864;2023-07-30T01:11:09;4.90;;;2.60;;
8327;SDS011;4201;48.754;8.864;2023-07-30T01:13:36;4.37;;;2.30;;
8327;SDS011;4201;48.754;8.864;2023-07-30T01:16:03;5.57;;;3.13;;
8327;SDS011;4201;48.754;8.864;2023-07-30T01:18:30;3.57;;;2.30;;
8327;SDS011;4201;48.754;8.864;2023-07-30T01:20:58;5.33;;;2.43;;
8327;SDS011;4201;48.754;8.864;2023-07-30T01:23:25;3.87;;;2.47;;
8327;SDS011;4201;48.754;8.864;2023-07-30T01:25:53;4.80;;;2.80;;
8327;SDS011;4201;48.754;8.864;2023-07-30T01:28:22;3.87;;;2.40;;
8327;SDS011;4201;48.754;8.864;2023-07-30T01:30:49;4.07;;;2.70;;
8327;SDS011;4201;48.754;8.864;2023-07-30T01:33:15;4.03;;;2.67;;
8327;SDS011;4201;48.754;8.864;2023-07-30T01:35:42;4.73;;;2.87;;
8327;SDS011;4201;48.754;8.864;2023-07-30T01:38:10;3.07;;;2.00;;
8327;SDS011;4201;48.754;8.864;2023-07-30T01:40:36;4.07;;;2.60;;
8327;SDS011;4201;48.754;8.864;2023-07-30T01:43:03;8.60;;;2.50;;
8327;SDS011;4201;48.754;8.864;2023-07-30T01:45:29;4.00;;;2.90;;
8327;SDS011;4201;48.754;8.864;2023-07-30T01:47:55;6.20;;;3.03;;
8327;SDS011;4201;48.754;8.864;2023-07-30T01:50:21;5.97;;;2.93;;
8327;SDS011;4201;48.754;8.864;2023-07-30T01:52:48;5.50;;;3.00;;
8327;SDS011;4201;48.754;8.864;2023-07-30T01:55:15;3.80;;;2.60;;
8327;SDS011;4201;48.754;8.864;2023-07-30T01:57:42;5.83;;;2.60;;
8327;SDS011;4201;48.754;8.864;2023-07-30T02:00:08;7.90;;;2.70;;
8327;SDS011;4201;48.754;8.864;2023-07-30T02:02:35;3.10;;;2.40;;
8327;SDS011;4201;48.754;8.864;2023-07-30T02:05:01;4.97;;;3.10;;
8327;SDS011;4201;48.754;8.864;2023-07-30T02:07:28;5.37;;;3.37;;
8327;SDS011;4201;48.754;8.864;2023-07-30T02:09:54;5.37;;;3.20;;
8327;SDS011;4201;48.754;8.864;2023-07-30T02:12:22;4.87;;;3.43;;
8327;SDS011;4201;48.754;8.864;2023-07-30T02:14:48;4.20;;;3.30;;
8327;SDS011;4201;48.754;8.864;2023-07-30T02:17:15;6.17;;;3.10;;
8327;SDS011;4201;48.754;8.864;2023-07-30T02:19:41;7.97;;;3.87;;
8327;SDS011;4201;48.754;8.864;2023-07-30T02:22:08;8.53;;;3.53;;
8327;SDS011;4201;48.754;8.864;2023-07-30T02:24:34;3.90;;;2.77;;
8327;SDS011;4201;48.754;8.864;2023-07-30T02:27:00;5.20;;;3.70;;
8327;SDS011;4201;48.754;8.864;2023-07-30T02:29:28;5.33;;;3.50;;
8327;SDS011;4201;48.754;8.864;2023-07-30T02:31:56;4.20;;;3.20;;
8327;SDS011;4201;48.754;8.864;2023-07-30T02:34:24;7.27;;;3.47;;
8327;SDS011;4201;48.754;8.864;2023-07-30T02:36:50;4.97;;;2.70;;
8327;SDS011;4201;48.754;8.864;2023-07-30T02:39:17;7.03;;;3.67;;
8327;SDS011;4201;48.754;8.864;2023-07-30T02:41:43;7.30;;;3.33;;
8327;SDS011;4201;48.754;8.864;2023-07-30T02:44:09;6.30;;;3.50;;
8327;SDS011;4201;48.754;8.864;2023-07-30T02:46:37;5.40;;;2.80;;
8327;SDS011;4201;48.754;8.864;2023-07-30T02:49:03;5.60;;;3.60;;
8327;SDS011;4201;48.754;8.864;2023-07-30T02:51:29;9.23;;;3.70;;
8327;SDS011;4201;48.754;8.864;2023-07-30T02:53:56;5.40;;;3.10;;
8327;SDS011;4201;48.754;8.864;2023-07-30T02:56:23;5.83;;;3.40;;
8327;SDS011;4201;48.754;8.864;2023-07-30T02:58:49;7.53;;;3.67;;
8327;SDS011;4201;48.754;8.864;2023-07-30T03:01:15;6.27;;;3.37;;
8327;SDS011;4201;48.754;8.864;2023-07-30T03:03:43;5.37;;;3.40;;
8327;SDS011;4201;48.754;8.864;2023-07-30T03:06:09;4.30;;;3.00;;
8327;SDS011;4201;48.754;8.864;2023-07-30T03:08:35;6.90;;;3.10;;
8327;SDS011;4201;48.754;8.864;2023-07-30T03:11:03;7.07;;;4.23;;
8327;SDS011;4201;48.754;8.864;2023-07-30T03:13:29;10.13;;;3.40;;
8327;SDS011;4201;48.754;8.864;2023-07-30T03:15:56;7.10;;;4.00;;
8327;SDS011;4201;48.754;8.864;2023-07-30T03:18:22;5.43;;;3.43;;
8327;SDS011;4201;48.754;8.864;2023-07-30T03:20:49;4.33;;;3.03;;
8327;SDS011;4201;48.754;8.864;2023-07-30T03:23:16;4.60;;;3.53;;
8327;SDS011;4201;48.754;8.864;2023-07-30T03:25:42;5.43;;;3.47;;
8327;SDS011;4201;48.754;8.864;2023-07-30T03:28:08;6.40;;;3.90;;
8327;SDS011;4201;48.754;8.864;2023-07-30T03:30:34;5.30;;;4.00;;
8327;SDS011;4201;48.754;8.864;2023-07-30T03:33:01;7.50;;;3.80;;
8327;SDS011;4201;48.754;8.864;2023-07-30T03:35:27;7.23;;;3.27;;
8327;SDS011;4201;48.754;8.864;2023-07-30T03:37:54;7.87;;;3.60;;
8327;SDS011;4201;48.754;8.864;2023-07-30T03:40:21;6.53;;;3.97;;
8327;SDS011;4201;48.754;8.864;2023-07-30T03:42:47;6.97;;;3.27;;
8327;SDS011;4201;48.754;8.864;2023-07-30T03:45:13;7.13;;;4.27;;
8327;SDS011;4201;48.754;8.864;2023-07-30T03:47:39;6.00;;;3.93;;
8327;SDS011;4201;48.754;8.864;2023-07-30T03:50:06;5.87;;;4.10;;
8327;SDS011;4201;48.754;8.864;2023-07-30T03:52:32;6.93;;;4.17;;
8327;SDS011;4201;48.754;8.864;2023-07-30T03:55:00;6.13;;;4.30;;
8327;SDS011;4201;48.754;8.864;2023-07-30T03:57:26;7.53;;;4.73;;
8327;SDS011;4201;48.754;8.864;2023-07-30T03:59:52;7.73;;;4.17;;
8327;SDS011;4201;48.754;8.864;2023-07-30T04:02:18;10.00;;;4.77;;
8327;SDS011;4201;48.754;8.864;2023-07-30T04:04:45;6.37;;;4.30;;
8327;SDS011;4201;48.754;8.864;2023-07-30T04:07:14;9.53;;;5.10;;
8327;SDS011;4201;48.754;8.864;2023-07-30T04:09:40;6.00;;;3.87;;
8327;SDS011;4201;48.754;8.864;2023-07-30T04:12:08;5.50;;;4.00;;
8327;SDS011;4201;48.754;8.864;2023-07-30T04:14:34;7.80;;;4.27;;
8327;SDS011;4201;48.754;8.864;2023-07-30T04:17:00;5.57;;;3.93;;
8327;SDS011;4201;48.754;8.864;2023-07-30T04:19:27;6.33;;;4.60;;
8327;SDS011;4201;48.754;8.864;2023-07-30T04:21:53;6.40;;;4.40;;
8327;SDS011;4201;48.754;8.864;2023-07-30T04:24:19;8.43;;;5.07;;
8327;SDS011;4201;48.754;8.864;2023-07-30T04:26:46;6.50;;;5.17;;
8327;SDS011;4201;48.754;8.864;2023-07-30T04:29:13;8.17;;;4.70;;
8327;SDS011;4201;48.754;8.864;2023-07-30T04:31:41;5.70;;;4.73;;
8327;SDS011;4201;48.754;8.864;2023-07-30T04:34:07;8.70;;;4.30;;
8327;SDS011;4201;48.754;8.864;2023-07-30T04:36:33;8.00;;;4.30;;
8327;SDS011;4201;48.754;8.864;2023-07-30T04:39:00;6.70;;;4.17;;
8327;SDS011;4201;48.754;8.864;2023-07-30T04:41:26;6.73;;;4.47;;
8327;SDS011;4201;48.754;8.864;2023-07-30T04:43:52;9.03;;;5.10;;
8327;SDS011;4201;48.754;8.864;2023-07-30T04:46:20;7.23;;;5.33;;
8327;SDS011;4201;48.754;8.864;2023-07-30T04:48:46;5.57;;;4.97;;
8327;SDS011;4201;48.754;8.864;2023-07-30T04:51:13;6.23;;;4.60;;
8327;SDS011;4201;48.754;8.864;2023-07-30T04:53:39;6.70;;;5.20;;
8327;SDS011;4201;48.754;8.864;2023-07-30T04:56:05;6.57;;;4.93;;
8327;SDS011;4201;48.754;8.864;2023-07-30T04:58:31;8.17;;;5.20;;
8327;SDS011;4201;48.754;8.864;2023-07-30T05:00:58;7.83;;;5.57;;
8327;SDS011;4201;48.754;8.864;2023-07-30T05:03:25;8.83;;;5.70;;
8327;SDS011;4201;48.754;8.864;2023-07-30T05:05:51;9.13;;;4.97;;
8327;SDS011;4201;48.754;8.864;2023-07-30T05:08:18;8.40;;;5.10;;
8327;SDS011;4201;48.754;8.864;2023-07-30T05:10:44;5.97;;;4.03;;
8327;SDS011;4201;48.754;8.864;2023-07-30T05:13:10;7.60;;;4.70;;
8327;SDS011;4201;48.754;8.864;2023-07-30T05:15:38;9.53;;;5.40;;
8327;SDS011;4201;48.754;8.864;2023-07-30T05:18:04;8.50;;;4.90;;
8327;SDS011;4201;48.754;8.864;2023-07-30T05:20:31;6.70;;;4.40;;
8327;SDS011;4201;48.754;8.864;2023-07-30T05:22:58;6.90;;;4.87;;
8327;SDS011;4201;48.754;8.864;2023-07-30T05:25:24;6.33;;;4.60;;
8327;SDS011;4201;48.754;8.864;2023-07-30T05:27:50;7.50;;;5.33;;
8327;SDS011;4201;48.754;8.864;2023-07-30T05:30:16;9.00;;;5.50;;
8327;SDS011;4201;48.754;8.864;2023-07-30T05:32:43;9.10;;;5.73;;
8327;SDS011;4201;48.754;8.864;2023-07-30T05:35:09;8.17;;;4.53;;
8327;SDS011;4201;48.754;8.864;2023-07-30T05:37:37;6.70;;;5.70;;
8327;SDS011;4201;48.754;8.864;2023-07-30T05:40:03;7.67;;;5.90;;
8327;SDS011;4201;48.754;8.864;2023-07-30T05:42:30;7.03;;;5.40;;
8327;SDS011;4201;48.754;8.864;2023-07-30T05:44:56;7.40;;;5.67;;
8327;SDS011;4201;48.754;8.864;2023-07-30T05:47:22;8.70;;;5.37;;
8327;SDS011;4201;48.754;8.864;2023-07-30T05:49:49;6.50;;;4.87;;
8327;SDS011;4201;48.754;8.864;2023-07-30T05:52:15;6.30;;;4.80;;
8327;SDS011;4201;48.754;8.864;2023-07-30T05:54:42;11.80;;;4.40;;
8327;SDS011;4201;48.754;8.864;2023-07-30T05:57:09;6.30;;;4.33;;
8327;SDS011;4201;48.754;8.864;2023-07-30T05:59:35;8.30;;;5.50;;
8327;SDS011;4201;48.754;8.864;2023-07-30T06:02:01;8.87;;;4.00;;
8327;SDS011;4201;48.754;8.864;2023-07-30T06:04:28;3.93;;;3.40;;
8327;SDS011;4201;48.754;8.864;2023-07-30T06:06:54;6.53;;;4.27;;
8327;SDS011;4201;48.754;8.864;2023-07-30T06:09:27;5.10;;;3.67;;
8327;SDS011;4201;48.754;8.864;2023-07-30T06:11:55;6.10;;;4.00;;
8327;SDS011;4201;48.754;8.864;2023-07-30T06:14:24;6.13;;;3.27;;
8327;SDS011;4201;48.754;8.864;2023-07-30T06:16:50;5.03;;;2.30;;
8327;SDS011;4201;48.754;8.864;2023-07-30T06:19:17;7.80;;;2.20;;
8327;SDS011;4201;48.754;8.864;2023-07-30T06:21:43;4.10;;;3.00;;
8327;SDS011;4201;48.754;8.864;2023-07-30T06:24:09;2.60;;;1.80;;
8327;SDS011;4201;48.754;8.864;2023-07-30T06:26:36;4.53;;;2.30;;
8327;SDS011;4201;48.754;8.864;2023-07-30T06:29:03;3.80;;;2.40;;
8327;SDS011;4201;48.754;8.864;2023-07-30T06:31:29;2.67;;;1.80;;
8327;SDS011;4201;48.754;8.864;2023-07-30T06:33:56;6.60;;;1.50;;
8327;SDS011;4201;48.754;8.864;2023-07-30T06:36:22;5.20;;;1.90;;
8327;SDS011;4201;48.754;8.864;2023-07-30T06:38:48;5.37;;;2.03;;
8327;SDS011;4201;48.754;8.864;2023-07-30T06:41:15;6.57;;;1.90;;
8327;SDS011;4201;48.754;8.864;2023-07-30T06:43:41;3.73;;;1.90;;
8327;SDS011;4201;48.754;8.864;2023-07-30T06:46:08;3.50;;;1.93;;
8327;SDS011;4201;48.754;8.864;2023-07-30T06:48:35;5.20;;;2.00;;
8327;SDS011;4201;48.754;8.864;2023-07-30T06:51:01;2.60;;;1.60;;
8327;SDS011;4201;48.754;8.864;2023-07-30T06:53:27;3.97;;;2.10;;
8327;SDS011;4201;48.754;8.864;2023-07-30T06:55:53;3.20;;;2.00;;
8327;SDS011;4201;48.754;8.864;2023-07-30T06:58:20;3.63;;;2.00;;
8327;SDS011;4201;48.754;8.864;2023-07-30T07:00:46;2.83;;;1.90;;
8327;SDS011;4201;48.754;8.864;2023-07-30T07:03:13;3.60;;;2.40;;
8327;SDS011;4201;48.754;8.864;2023-07-30T07:05:40;3.63;;;2.53;;
8327;SDS011;4201;48.754;8.864;2023-07-30T07:08:06;4.73;;;2.13;;
8327;SDS011;4201;48.754;8.864;2023-07-30T07:10:32;5.70;;;3.23;;
8327;SDS011;4201;48.754;8.864;2023-07-30T07:12:59;5.03;;;2.60;;
8327;SDS011;4201;48.754;8.864;2023-07-30T07:15:25;4.20;;;1.90;;
8327;SDS011;4201;48.754;8.864;2023-07-30T07:17:51;4.63;;;2.10;;
8327;SDS011;4201;48.754;8.864;2023-07-30T07:20:19;5.07;;;2.30;;
8327;SDS011;4201;48.754;8.864;2023-07-30T07:22:45;3.90;;;2.47;;
8327;SDS011;4201;48.754;8.864;2023-07-30T07:25:11;5.73;;;2.10;;
8327;SDS011;4201;48.754;8.864;2023-07-30T07:27:37;4.60;;;2.47;;
8327;SDS011;4201;48.754;8.864;2023-07-30T07:30:04;4.60;;;2.27;;
8327;SDS011;4201;48.754;8.864;2023-07-30T07:32:31;2.80;;;2.00;;
8327;SDS011;4201;48.754;8.864;2023-07-30T07:35:02;2.97;;;2.13;;
8327;SDS011;4201;48.754;8.864;2023-07-30T07:37:31;2.80;;;2.03;;
8327;SDS011;4201;48.754;8.864;2023-07-30T07:39:58;3.07;;;1.97;;
8327;SDS011;4201;48.754;8.864;2023-07-30T07:42:24;4.07;;;2.03;;
8327;SDS011;4201;48.754;8.864;2023-07-30T07:44:50;6.13;;;2.10;;
8327;SDS011;4201;48.754;8.864;2023-07-30T07:47:16;3.23;;;2.13;;
8327;SDS011;4201;48.754;8.864;2023-07-30T07:49:43;3.40;;;1.80;;
8327;SDS011;4201;48.754;8.864;2023-07-30T07:52:09;2.97;;;1.73;;
8327;SDS011;4201;48.754;8.864;2023-07-30T07:54:36;2.93;;;1.77;;
8327;SDS011;4201;48.754;8.864;2023-07-30T07:57:03;7.20;;;3.07;;
8327;SDS011;4201;48.754;8.864;2023-07-30T07:59:29;6.83;;;2.57;;
8327;SDS011;4201;48.754;8.864;2023-07-30T08:01:56;4.40;;;1.87;;
8327;SDS011;4201;48.754;8.864;2023-07-30T08:04:22;3.00;;;1.67;;
8327;SDS011;4201;48.754;8.864;2023-07-30T08:06:48;3.90;;;2.40;;
8327;SDS011;4201;48.754;8.864;2023-07-30T08:09:15;3.07;;;1.50;;
8327;SDS011;4201;48.754;8.864;2023-07-30T08:11:50;3.00;;;2.13;;
8327;SDS011;4201;48.754;8.864;2023-07-30T08:14:17;4.13;;;2.10;;
8327;SDS011;4201;48.754;8.864;2023-07-30T08:16:43;3.23;;;2.10;;
8327;SDS011;4201;48.754;8.864;2023-07-30T08:19:09;4.83;;;2.50;;
8327;SDS011;4201;48.754;8.864;2023-07-30T08:21:36;4.27;;;2.30;;
8327;SDS011;4201;48.754;8.864;2023-07-30T08:24:03;3.60;;;2.00;;
8327;SDS011;4201;48.754;8.864;2023-07-30T08:26:29;6.83;;;2.60;;
8327;SDS011;4201;48.754;8.864;2023-07-30T08:28:57;3.90;;;2.20;;
8327;SDS011;4201;48.754;8.864;2023-07-30T08:31:23;3.50;;;2.73;;
8327;SDS011;4201;48.754;8.864;2023-07-30T08:33:50;6.90;;;3.17;;
8327;SDS011;4201;48.754;8.864;2023-07-30T08:36:16;3.50;;;2.60;;
8327;SDS011;4201;48.754;8.864;2023-07-30T08:38:42;5.13;;;2.90;;
8327;SDS011;4201;48.754;8.864;2023-07-30T08:41:08;2.93;;;1.77;;
8327;SDS011;4201;48.754;8.864;2023-07-30T08:43:35;3.87;;;2.50;;
8327;SDS011;4201;48.754;8.864;2023-07-30T08:46:02;5.50;;;2.40;;
8327;SDS011;4201;48.754;8.864;2023-07-30T08:48:29;4.00;;;2.50;;
8327;SDS011;4201;48.754;8.864;2023-07-30T08:50:56;3.37;;;2.20;;
8327;SDS011;4201;48.754;8.864;2023-07-30T08:53:22;4.37;;;2.63;;
8327;SDS011;4201;48.754;8.864;2023-07-30T08:55:49;5.20;;;2.63;;
8327;SDS011;4201;48.754;8.864;2023-07-30T08:58:15;4.70;;;2.77;;
8327;SDS011;4201;48.754;8.864;2023-07-30T09:00:42;4.30;;;2.03;;
8327;SDS011;4201;48.754;8.864;2023-07-30T09:03:10;4.93;;;2.40;;
8327;SDS011;4201;48.754;8.864;2023-07-30T09:05:41;3.77;;;2.40;;
8327;SDS011;4201;48.754;8.864;2023-07-30T09:08:07;5.80;;;2.20;;
8327;SDS011;4201;48.754;8.864;2023-07-30T09:10:34;3.70;;;2.63;;
8327;SDS011;4201;48.754;8.864;2023-07-30T09:13:03;5.13;;;2.97;;
8327;SDS011;4201;48.754;8.864;2023-07-30T09:15:30;4.20;;;2.50;;
8327;SDS011;4201;48.754;8.864;2023-07-30T09:17:57;4.67;;;2.17;;
8327;SDS011;4201;48.754;8.864;2023-07-30T09:20:25;9.53;;;2.50;;
8327;SDS011;4201;48.754;8.864;2023-07-30T09:22:51;4.27;;;2.73;;
8327;SDS011;4201;48.754;8.864;2023-07-30T09:25:17;5.60;;;2.50;;
8327;SDS011;4201;48.754;8.864;2023-07-30T09:27:47;6.50;;;3.43;;
8327;SDS011;4201;48.754;8.864;2023-07-30T09:30:13;3.37;;;2.27;;
8327;SDS011;4201;48.754;8.864;2023-07-30T09:32:39;3.37;;;2.20;;
8327;SDS011;4201;48.754;8.864;2023-07-30T09:35:06;12.53;;;3.10;;
8327;SDS011;4201;48.754;8.864;2023-07-30T09:37:35;7.20;;;3.17;;
8327;SDS011;4201;48.754;8.864;2023-07-30T09:40:02;5.07;;;2.60;;
8327;SDS011;4201;48.754;8.864;2023-07-30T09:42:28;3.50;;;2.33;;
8327;SDS011;4201;48.754;8.864;2023-07-30T09:44:58;5.17;;;2.80;;
8327;SDS011;4201;48.754;8.864;2023-07-30T09:47:25;3.70;;;2.37;;
8327;SDS011;4201;48.754;8.864;2023-07-30T09:49:52;4.80;;;2.57;;
8327;SDS011;4201;48.754;8.864;2023-07-30T09:52:19;4.20;;;2.67;;
8327;SDS011;4201;48.754;8.864;2023-07-30T09:54:47;3.73;;;2.70;;
8327;SDS011;4201;48.754;8.864;2023-07-30T09:57:14;4.50;;;2.50;;
8327;SDS011;4201;48.754;8.864;2023-07-30T09:59:41;9.10;;;3.20;;
8327;SDS011;4201;48.754;8.864;2023-07-30T10:02:07;4.37;;;2.80;;
8327;SDS011;4201;48.754;8.864;2023-07-30T10:04:34;4.30;;;3.00;;
8327;SDS011;4201;48.754;8.864;2023-07-30T10:07:03;5.50;;;3.10;;
8327;SDS011;4201;48.754;8.864;2023-07-30T10:09:30;8.60;;;3.40;;
8327;SDS011;4201;48.754;8.864;2023-07-30T10:11:59;5.13;;;2.90;;
8327;SDS011;4201;48.754;8.864;2023-07-30T10:14:26;5.33;;;2.90;;
8327;SDS011;4201;48.754;8.864;2023-07-30T10:16:53;7.53;;;3.00;;
8327;SDS011;4201;48.754;8.864;2023-07-30T10:21:45;4.30;;;2.80;;
8327;SDS011;4201;48.754;8.864;2023-07-30T10:24:11;5.83;;;2.77;;
8327;SDS011;4201;48.754;8.864;2023-07-30T10:26:37;4.03;;;2.80;;
8327;SDS011;4201;48.754;8.864;2023-07-30T10:29:12;4.10;;;2.83;;
8327;SDS011;4201;48.754;8.864;2023-07-30T10:31:38;8.30;;;3.27;;
8327;SDS011;4201;48.754;8.864;2023-07-30T10:34:06;5.20;;;2.83;;
8327;SDS011;4201;48.754;8.864;2023-07-30T10:36:33;3.93;;;2.40;;
8327;SDS011;4201;48.754;8.864;2023-07-30T10:39:01;5.50;;;3.50;;
8327;SDS011;4201;48.754;8.864;2023-07-30T10:41:36;6.70;;;2.83;;
8327;SDS011;4201;48.754;8.864;2023-07-30T10:44:03;6.70;;;3.90;;
8327;SDS011;4201;48.754;8.864;2023-07-30T10:46:31;5.43;;;2.47;;
8327;SDS011;4201;48.754;8.864;2023-07-30T10:48:57;4.60;;;3.00;;
8327;SDS011;4201;48.754;8.864;2023-07-30T10:51:23;4.93;;;3.07;;
8327;SDS011;4201;48.754;8.864;2023-07-30T10:53:50;4.93;;;2.50;;
8327;SDS011;4201;48.754;8.864;2023-07-30T10:56:17;4.43;;;2.60;;
8327;SDS011;4201;48.754;8.864;2023-07-30T10:58:43;4.60;;;2.60;;
8327;SDS011;4201;48.754;8.864;2023-07-30T11:01:14;9.47;;;2.70;;
8327;SDS011;4201;48.754;8.864;2023-07-30T11:03:42;3.40;;;2.23;;
8327;SDS011;4201;48.754;8.864;2023-07-30T11:06:08;7.73;;;2.83;;
8327;SDS011;4201;48.754;8.864;2023-07-30T11:08:35;6.67;;;2.90;;
8327;SDS011;4201;48.754;8.864;2023-07-30T11:11:02;4.77;;;3.40;;
8327;SDS011;4201;48.754;8.864;2023-07-30T11:13:28;10.27;;;3.13;;
8327;SDS011;4201;48.754;8.864;2023-07-30T11:15:54;4.50;;;2.80;;
8327;SDS011;4201;48.754;8.864;2023-07-30T11:18:21;7.27;;;3.23;;
8327;SDS011;4201;48.754;8.864;2023-07-30T11:20:48;4.90;;;3.03;;
8327;SDS011;4201;48.754;8.864;2023-07-30T11:23:17;4.73;;;2.50;;
8327;SDS011;4201;48.754;8.864;2023-07-30T11:25:45;8.47;;;3.80;;
8327;SDS011;4201;48.754;8.864;2023-07-30T11:28:11;9.57;;;2.97;;
8327;SDS011;4201;48.754;8.864;2023-07-30T11:30:37;7.13;;;4.07;;
8327;SDS011;4201;48.754;8.864;2023-07-30T11:33:04;7.43;;;3.40;;
8327;SDS011;4201;48.754;8.864;2023-07-30T11:35:30;4.20;;;2.87;;
8327;SDS011;4201;48.754;8.864;2023-07-30T11:37:58;4.60;;;2.77;;
8327;SDS011;4201;48.754;8.864;2023-07-30T11:40:24;4.00;;;3.00;;
8327;SDS011;4201;48.754;8.864;2023-07-30T11:42:51;4.97;;;3.23;;
8327;SDS011;4201;48.754;8.864;2023-07-30T11:45:17;6.07;;;2.90;;
8327;SDS011;4201;48.754;8.864;2023-07-30T11:47:44;6.07;;;3.30;;
8327;SDS011;4201;48.754;8.864;2023-07-30T11:50:10;5.03;;;2.57;;
8327;SDS011;4201;48.754;8.864;2023-07-30T11:52:38;5.73;;;3.57;;
8327;SDS011;4201;48.754;8.864;2023-07-30T11:55:17;3.77;;;2.67;;
8327;SDS011;4201;48.754;8.864;2023-07-30T11:57:44;4.90;;;2.80;;
8327;SDS011;4201;48.754;8.864;2023-07-30T12:00:11;5.60;;;2.63;;
8327;SDS011;4201;48.754;8.864;2023-07-30T12:02:37;4.27;;;3.33;;
8327;SDS011;4201;48.754;8.864;2023-07-30T12:05:04;5.47;;;2.33;;
8327;SDS011;4201;48.754;8.864;2023-07-30T12:07:32;6.07;;;3.00;;
8327;SDS011;4201;48.754;8.864;2023-07-30T12:10:05;6.03;;;3.00;;
8327;SDS011;4201;48.754;8.864;2023-07-30T12:12:33;4.93;;;2.37;;
8327;SDS011;4201;48.754;8.864;2023-07-30T12:14:59;6.00;;;2.50;;
8327;SDS011;4201;48.754;8.864;2023-07-30T12:17:26;3.63;;;2.30;;
8327;SDS011;4201;48.754;8.864;2023-07-30T12:19:52;3.60;;;3.10;;
8327;SDS011;4201;48.754;8.864;2023-07-30T12:22:18;3.60;;;2.47;;
8327;SDS011;4201;48.754;8.864;2023-07-30T12:24:44;7.37;;;3.03;;
8327;SDS011;4201;48.754;8.864;2023-07-30T12:27:11;4.37;;;2.97;;
8327;SDS011;4201;48.754;8.864;2023-07-30T12:29:38;7.37;;;3.27;;
8327;SDS011;4201;48.754;8.864;2023-07-30T12:32:05;9.53;;;3.03;;
8327;SDS011;4201;48.754;8.864;2023-07-30T12:34:31;6.77;;;3.00;;
8327;SDS011;4201;48.754;8.864;2023-07-30T12:36:57;7.53;;;2.90;;
8327;SDS011;4201;48.754;8.864;2023-07-30T12:39:24;7.60;;;2.73;;
8327;SDS011;4201;48.754;8.864;2023-07-30T12:41:51;5.93;;;2.90;;
8327;SDS011;4201;48.754;8.864;2023-07-30T12:44:17;5.43;;;2.80;;
8327;SDS011;4201;48.754;8.864;2023-07-30T12:46:44;4.30;;;2.30;;
8327;SDS011;4201;48.754;8.864;2023-07-30T12:49:11;4.80;;;2.70;;
8327;SDS011;4201;48.754;8.864;2023-07-30T12:51:37;5.93;;;3.47;;
8327;SDS011;4201;48.754;8.864;2023-07-30T12:54:03;6.50;;;3.23;;
8327;SDS011;4201;48.754;8.864;2023-07-30T12:56:30;5.53;;;3.17;;
8327;SDS011;4201;48.754;8.864;2023-07-30T12:58:56;6.88;;;2.65;;
8327;SDS011;4201;48.754;8.864;2023-07-30T13:01:22;4.33;;;2.43;;
8327;SDS011;4201;48.754;8.864;2023-07-30T13:03:50;5.37;;;3.10;;
8327;SDS011;4201;48.754;8.864;2023-07-30T13:06:19;6.73;;;2.97;;
8327;SDS011;4201;48.754;8.864;2023-07-30T13:08:45;5.00;;;2.77;;
8327;SDS011;4201;48.754;8.864;2023-07-30T13:11:12;5.83;;;3.10;;
8327;SDS011;4201;48.754;8.864;2023-07-30T13:13:38;5.97;;;3.07;;
8327;SDS011;4201;48.754;8.864;2023-07-30T13:16:04;7.33;;;2.40;;
8327;SDS011;4201;48.754;8.864;2023-07-30T13:18:31;4.67;;;2.30;;
8327;SDS011;4201;48.754;8.864;2023-07-30T13:20:58;7.80;;;2.13;;
8327;SDS011;4201;48.754;8.864;2023-07-30T13:23:24;8.10;;;2.83;;
8327;SDS011;4201;48.754;8.864;2023-07-30T13:25:51;6.60;;;2.30;;
8327;SDS011;4201;48.754;8.864;2023-07-30T13:28:17;13.63;;;2.47;;
8327;SDS011;4201;48.754;8.864;2023-07-30T13:30:43;4.17;;;2.83;;
8327;SDS011;4201;48.754;8.864;2023-07-30T13:33:09;6.33;;;2.40;;
8327;SDS011;4201;48.754;8.864;2023-07-30T13:35:36;5.90;;;2.30;;
8327;SDS011;4201;48.754;8.864;2023-07-30T13:38:03;5.90;;;2.60;;
8327;SDS011;4201;48.754;8.864;2023-07-30T13:40:30;11.33;;;3.13;;
8327;SDS011;4201;48.754;8.864;2023-07-30T13:42:56;4.00;;;1.87;;
8327;SDS011;4201;48.754;8.864;2023-07-30T13:45:22;4.40;;;2.20;;
8327;SDS011;4201;48.754;8.864;2023-07-30T13:47:48;5.20;;;2.90;;
8327;SDS011;4201;48.754;8.864;2023-07-30T13:50:14;6.00;;;2.33;;
8327;SDS011;4201;48.754;8.864;2023-07-30T13:52:41;6.37;;;2.93;;
8327;SDS011;4201;48.754;8.864;2023-07-30T13:55:08;7.10;;;2.73;;
8327;SDS011;4201;48.754;8.864;2023-07-30T13:57:35;6.47;;;3.00;;
8327;SDS011;4201;48.754;8.864;2023-07-30T14:00:01;7.60;;;2.73;;
8327;SDS011;4201;48.754;8.864;2023-07-30T14:02:28;4.33;;;2.33;;
8327;SDS011;4201;48.754;8.864;2023-07-30T14:04:54;4.10;;;2.10;;
8327;SDS011;4201;48.754;8.864;2023-07-30T14:07:20;5.70;;;2.17;;
8327;SDS011;4201;48.754;8.864;2023-07-30T14:09:46;5.80;;;2.70;;
8327;SDS011;4201;48.754;8.864;2023-07-30T14:12:14;5.70;;;2.97;;
8327;SDS011;4201;48.754;8.864;2023-07-30T14:14:40;4.20;;;2.77;;
8327;SDS011;4201;48.754;8.864;2023-07-30T14:17:06;3.40;;;2.10;;
8327;SDS011;4201;48.754;8.864;2023-07-30T14:19:32;4.40;;;1.90;;
8327;SDS011;4201;48.754;8.864;2023-07-30T14:21:59;4.80;;;2.43;;
8327;SDS011;4201;48.754;8.864;2023-07-30T14:24:25;4.47;;;2.17;;
8327;SDS011;4201;48.754;8.864;2023-07-30T14:26:51;4.93;;;2.60;;
8327;SDS011;4201;48.754;8.864;2023-07-30T14:29:19;5.50;;;2.20;;
8327;SDS011;4201;48.754;8.864;2023-07-30T14:31:45;7.20;;;2.10;;
8327;SDS011;4201;48.754;8.864;2023-07-30T14:34:11;5.13;;;2.10;;
8327;SDS011;4201;48.754;8.864;2023-07-30T14:36:37;4.03;;;1.60;;
8327;SDS011;4201;48.754;8.864;2023-07-30T14:39:04;6.63;;;2.03;;
8327;SDS011;4201;48.754;8.864;2023-07-30T14:41:30;5.83;;;2.53;;
8327;SDS011;4201;48.754;8.864;2023-07-30T14:43:56;3.93;;;2.17;;
8327;SDS011;4201;48.754;8.864;2023-07-30T14:46:24;4.40;;;2.30;;
8327;SDS011;4201;48.754;8.864;2023-07-30T14:48:50;6.43;;;2.60;;
8327;SDS011;4201;48.754;8.864;2023-07-30T14:51:16;4.47;;;2.17;;
8327;SDS011;4201;48.754;8.864;2023-07-30T14:53:43;6.77;;;2.37;;
8327;SDS011;4201;48.754;8.864;2023-07-30T14:56:10;8.57;;;2.37;;
8327;SDS011;4201;48.754;8.864;2023-07-30T14:58:36;3.37;;;1.83;;
8327;SDS011;4201;48.754;8.864;2023-07-30T15:01:02;5.37;;;2.60;;
8327;SDS011;4201;48.754;8.864;2023-07-30T15:03:30;5.53;;;2.33;;
8327;SDS011;4201;48.754;8.864;2023-07-30T15:05:56;6.03;;;2.33;;
8327;SDS011;4201;48.754;8.864;2023-07-30T15:08:22;4.67;;;2.00;;
8327;SDS011;4201;48.754;8.864;2023-07-30T15:10:49;4.30;;;2.10;;
8327;SDS011;4201;48.754;8.864;2023-07-30T15:13:15;6.90;;;1.83;;